Terminal Aerodrome Forecast
Issued by NWS

Home | Current Version | Previous Version | Text Only | Print | Product List | Glossary On
Versions: 1 2 3 4 5 6 7 8 9 10 11 12 13 14 15 16
854
FTUS43 KPAH 172320
TAFCGI
TAF
KCGI 172320Z 1800/1824 23006KT P6SM SCT030 BKN060
     FM180600 VRB03KT 6SM BR SCT060
     FM180900 00000KT 2SM BR SKC
     FM181300 VRB02KT P6SM SKC
     FM181600 29006KT P6SM SCT045=

USA.gov is the U.S. government's official web portal to all federal, state and local government web resources and services.